Hlavní strana
METAR-TAF:

METAR-TAF

Letiště :

Chlef, Alžírsko

zeměpisná šířka: 36-13N, zeměpisná délka: 001-20E, výška: 143 m

Aktuální stav počasí

Zpráva byla vytvořena před 19 hodinami a 23 minutami, v 15:00 UTC
Jihojihozápadní vítr 6 kt
Teplota 26°C
Vlhkost vzduchu 34%
Tlak 1016 hPa
Viditelnost 10 km a více
Skoro jasno ve výšce 2600 ft
Polojasno ve výšce 10000 ft

METAR: DAOI 091500Z 20006KT 9999 FEW026 SCT100 26/09 Q1016

Čas: 11:23 (10:23 UTC)

Předpověď počasí

Zpráva byla vytvořena před 17 hodinami a 23 minutami, v 17:00 UTC
Předpověď platná od 09 v 18 UTC do 10 v 18 UTC
vítr z různých směrů 2 kt
Viditelnost 10 km a více
Skoro jasno ve výšce 2600 ft
Polojasno ve výšce 10000 ft
Dočasný
od 10 v 03 UTC do 10 v 18 UTC
Viditelnost: 7000 m
Oblačno až skoro zataženo ve výšce 2600 ft
Polojasno ve výšce 10000 ft

TAF: DAOI 091700Z 0918/1018 VRB02KT 9999 FEW026 SCT100 TEMPO 1003/1018 7000 BKN026 SCT100

Stav a předpovědi počasí z více než 4 000 letišť (zprávy METAR a TAF).

Červené a žluté tečky na mapě představují dostupné meteorologické stanice.

Když kurzor umístíte na tečku, zobrazí se název stanice.

Pak kliknutím zobrazíte stav a předpověď počasí.

Chcete-li změnit mapu, kliknutím na zelené tlačítko se znaménkem +mapu přiblížíte, kliknutím na zelené tlačítko se znaménkem – mapu oddálíte a kliknutím na zelené šipky přejdete na sousední mapy.


METAR-TAF: